Decoded Metar for LFMD (CANNES in FRANCE) (IATA:CEQ) | Meteo·Mobile Aviation Weather
aviador You're here:

LFMD Decoded Metar

CANNES in FRANCE
Report Time2018-08-21 16:00:00
UTC Time2018-08-21 16:07:30
Flight Rules vfr VFR
Wind170° at 03 kt
W.Decomp.*RWY 17: 3.0 kt HW -0 kt LCW
RWY 22: 1.9 kt HW 2.3 kt LCW
W.Rank170° ranks 4
Current wind is below 170° avg. (6.4)
Visibility9999 m
Phenomena:Shower Rain
Clouds:N/A
Expected CloudBase > 6,000 ft AGL from Temp-Dew spread
CeilingNone
Temp31°C (ISA +16)
Dew Point16°C (40% RH)
Heat Index30.9°C
QNH1013 hPa
Density Alt2,110 ft
Elevation30 ft
Report Wrong Elevation
Raw Report
METAR LFMD 211600Z AUTO 17003KT 140V210 CAVOK 31/16 Q1013 TEMPO
SHRA FEW050CB=

Extra information for LFMD:More info

Metar Taf Metar & Taf Last 4 Metars F.Rules Stats Wind Profile Meteogram Temp Stats Airport Information Weather charts Add Link Nearby VenuesMetar ALERT Operation Metar Decoded Social comments